Time;durP1;ratioP1;P1;durP2;ratioP2;P2;SDS_P1;SDS_P2;PMS_P1;PMS_P2;Temp;Humidity;BMP_temperature;BMP_pressure;BME280_temperature;BME280_humidity;BME280_pressure;Samples;Min_cycle;Max_cycle;Signal;HPM_P1;HPM_P2
2023/10/22 00:00:12;;;;;;;3.73;0.90;;;;;;;;;;697431;28;852;-63
2023/10/22 00:00:33;;;;;;;4.03;0.90;;;;;;;;;;698230;28;745;-63
2023/10/22 00:00:53;;;;;;;3.35;1.05;;;;;;;;;;695633;28;4548;-63
2023/10/22 00:01:13;;;;;;;3.07;1.03;;;;;;;;;;700380;28;1391;-62
2023/10/22 00:01:34;;;;;;;3.72;0.90;;;;;;;;;;702503;28;931;-63
2023/10/22 00:01:54;;;;;;;3.03;0.90;;;;;;;;;;700112;28;1541;-63
2023/10/22 00:02:15;;;;;;;3.27;0.90;;;;;;;;;;698288;28;835;-63
2023/10/22 00:02:35;;;;;;;3.55;0.85;;;;;;;;;;699493;28;1372;-63
2023/10/22 00:02:56;;;;;;;3.38;0.80;;;;;;;;;;693181;28;1435;-63
2023/10/22 00:03:16;;;;;;;1.90;0.80;;;;;;;;;;694809;28;915;-62
2023/10/22 00:03:36;;;;;;;3.30;0.90;;;;;;;;;;694337;28;978;-65
2023/10/22 00:03:56;;;;;;;3.20;0.90;;;;;;;;;;691681;28;4244;-62
2023/10/22 00:04:17;;;;;;;2.43;0.80;;;;;;;;;;696928;28;1452;-63
2023/10/22 00:04:40;;;;;;;3.30;0.80;;;;;;;;;;700399;28;776;-62
2023/10/22 00:05:01;;;;;;;4.07;0.82;;;;;;;;;;704501;27;1710;-62
2023/10/22 00:05:21;;;;;;;5.13;0.87;;;;;;;;;;703526;28;804;-62
2023/10/22 00:05:41;;;;;;;3.87;0.90;;;;;;;;;;701935;28;986;-63
2023/10/22 00:06:02;;;;;;;4.10;1.00;;;;;;;;;;700320;28;1785;-64
2023/10/22 00:06:22;;;;;;;3.15;1.00;;;;;;;;;;700549;28;1037;-63
2023/10/22 00:06:42;;;;;;;2.87;1.00;;;;;;;;;;700598;28;4469;-63
2023/10/22 00:07:03;;;;;;;2.90;0.80;;;;;;;;;;699562;28;2151;-64
2023/10/22 00:07:23;;;;;;;3.22;0.80;;;;;;;;;;703419;28;1375;-62
2023/10/22 00:07:44;;;;;;;3.33;0.93;;;;;;;;;;703136;28;891;-63
2023/10/22 00:08:04;;;;;;;2.92;0.80;;;;;;;;;;701525;28;1852;-62
2023/10/22 00:08:24;;;;;;;2.03;0.63;;;;;;;;;;704722;27;891;-66
2023/10/22 00:08:44;;;;;;;2.73;0.70;;;;;;;;;;706049;27;951;-63
2023/10/22 00:09:05;;;;;;;3.13;0.80;;;;;;;;;;703641;27;1942;-65
2023/10/22 00:09:25;;;;;;;4.83;1.00;;;;;;;;;;704858;28;819;-62
2023/10/22 00:09:45;;;;;;;5.40;1.00;;;;;;;;;;703034;28;4494;-64
2023/10/22 00:10:06;;;;;;;4.22;1.30;;;;;;;;;;700326;28;1976;-62
2023/10/22 00:10:27;;;;;;;4.37;1.17;;;;;;;;;;702887;28;895;-62
2023/10/22 00:10:47;;;;;;;4.63;1.00;;;;;;;;;;703861;28;1005;-64
2023/10/22 00:11:07;;;;;;;3.15;0.85;;;;;;;;;;701229;28;1458;-62
2023/10/22 00:11:28;;;;;;;2.93;0.97;;;;;;;;;;703465;28;1188;-62
2023/10/22 00:11:48;;;;;;;2.80;0.80;;;;;;;;;;705804;27;1078;-64
2023/10/22 00:12:08;;;;;;;3.65;1.10;;;;;;;;;;701836;28;1199;-64
2023/10/22 00:12:29;;;;;;;2.50;0.90;;;;;;;;;;701447;28;951;-61
2023/10/22 00:12:49;;;;;;;3.17;1.10;;;;;;;;;;702292;28;4264;-62
2023/10/22 00:13:10;;;;;;;2.78;0.90;;;;;;;;;;702528;28;1440;-62
2023/10/22 00:13:30;;;;;;;3.08;0.90;;;;;;;;;;702541;28;1028;-63
2023/10/22 00:13:51;;;;;;;2.60;0.80;;;;;;;;;;701894;28;1807;-63
2023/10/22 00:14:11;;;;;;;2.33;0.82;;;;;;;;;;704815;28;1269;-63
2023/10/22 00:14:32;;;;;;;3.17;0.90;;;;;;;;;;704044;27;871;-62
2023/10/22 00:14:52;;;;;;;3.23;0.97;;;;;;;;;;702799;27;1845;-61
2023/10/22 00:15:14;;;;;;;2.90;0.90;;;;;;;;;;705713;27;1242;-63
2023/10/22 00:15:34;;;;;;;4.40;0.98;;;;;;;;;;703950;27;1022;-61
2023/10/22 00:15:56;;;;;;;3.80;0.93;;;;;;;;;;703630;27;4232;-63
2023/10/22 00:16:16;;;;;;;2.42;1.00;;;;;;;;;;704953;27;4919;-62
2023/10/22 00:16:36;;;;;;;4.23;0.90;;;;;;;;;;704232;27;967;-63
2023/10/22 00:16:57;;;;;;;5.07;1.00;;;;;;;;;;703978;27;1819;-64
2023/10/22 00:17:37;;;;;;;3.58;0.90;;;;;;;;;;705216;27;1694;-63
2023/10/22 00:17:57;;;;;;;4.30;0.83;;;;;;;;;;703213;28;1723;-64
2023/10/22 00:18:18;;;;;;;3.88;0.93;;;;;;;;;;705380;27;1354;-61
2023/10/22 00:18:38;;;;;;;2.93;0.90;;;;;;;;;;705059;27;776;-63
2023/10/22 00:18:58;;;;;;;2.70;0.80;;;;;;;;;;702957;27;4186;-63
2023/10/22 00:19:18;;;;;;;2.30;0.80;;;;;;;;;;706651;27;882;-62
2023/10/22 00:19:39;;;;;;;3.70;0.90;;;;;;;;;;705933;27;985;-62
2023/10/22 00:19:59;;;;;;;3.43;0.93;;;;;;;;;;702869;28;1534;-63
2023/10/22 00:20:19;;;;;;;3.03;0.90;;;;;;;;;;704762;27;903;-63
2023/10/22 00:20:39;;;;;;;3.10;0.82;;;;;;;;;;704943;27;932;-64
2023/10/22 00:21:00;;;;;;;3.23;0.83;;;;;;;;;;703040;27;1720;-64
2023/10/22 00:21:20;;;;;;;3.80;0.83;;;;;;;;;;701673;28;942;-63
2023/10/22 00:21:40;;;;;;;3.83;0.85;;;;;;;;;;703346;28;1037;-63
2023/10/22 00:22:01;;;;;;;3.37;1.00;;;;;;;;;;700890;28;4335;-63
2023/10/22 00:22:21;;;;;;;3.75;0.80;;;;;;;;;;702377;28;1145;-63
2023/10/22 00:22:41;;;;;;;2.80;0.80;;;;;;;;;;701840;28;915;-64
2023/10/22 00:23:02;;;;;;;3.03;0.90;;;;;;;;;;700622;28;2315;-64
2023/10/22 00:23:22;;;;;;;3.45;0.95;;;;;;;;;;705589;28;1319;-63
2023/10/22 00:23:42;;;;;;;3.87;0.90;;;;;;;;;;705257;27;914;-65
2023/10/22 00:24:03;;;;;;;3.67;0.90;;;;;;;;;;701118;28;1734;-63
2023/10/22 00:24:23;;;;;;;3.47;0.95;;;;;;;;;;702928;28;994;-63
2023/10/22 00:24:43;;;;;;;3.60;0.90;;;;;;;;;;701739;28;4305;-64
2023/10/22 00:25:05;;;;;;;3.40;0.80;;;;;;;;;;700609;28;1722;-63
2023/10/22 00:25:25;;;;;;;4.05;1.02;;;;;;;;;;702223;28;903;-64
2023/10/22 00:25:46;;;;;;;3.53;1.10;;;;;;;;;;702642;28;788;-62
2023/10/22 00:26:11;;;;;;;3.55;1.10;;;;;;;;;;704128;27;1945;-62
2023/10/22 00:26:32;;;;;;;3.72;1.20;;;;;;;;;;706046;27;786;-62
2023/10/22 00:26:54;;;;;;;3.97;0.90;;;;;;;;;;704346;27;1952;-62
2023/10/22 00:27:14;;;;;;;4.27;0.80;;;;;;;;;;704409;27;832;-61
2023/10/22 00:27:34;;;;;;;3.87;0.83;;;;;;;;;;705972;27;927;-63
2023/10/22 00:27:55;;;;;;;3.70;0.90;;;;;;;;;;704115;27;4375;-63
2023/10/22 00:28:15;;;;;;;3.00;0.87;;;;;;;;;;704396;27;856;-63
2023/10/22 00:28:35;;;;;;;4.63;0.93;;;;;;;;;;705616;27;1370;-64
2023/10/22 00:28:56;;;;;;;3.60;0.90;;;;;;;;;;704397;27;1808;-63
2023/10/22 00:29:16;;;;;;;3.60;0.90;;;;;;;;;;704295;27;1244;-63
2023/10/22 00:29:36;;;;;;;3.47;0.87;;;;;;;;;;702440;28;958;-63
2023/10/22 00:29:56;;;;;;;3.13;0.80;;;;;;;;;;701536;28;2414;-63
2023/10/22 00:30:17;;;;;;;2.97;0.90;;;;;;;;;;699378;28;1979;-62
2023/10/22 00:30:37;;;;;;;3.33;0.95;;;;;;;;;;698856;28;780;-62
2023/10/22 00:30:57;;;;;;;3.87;0.90;;;;;;;;;;695990;28;5091;-62
2023/10/22 00:31:18;;;;;;;2.77;1.00;;;;;;;;;;697493;28;1131;-62
2023/10/22 00:31:38;;;;;;;4.33;1.27;;;;;;;;;;698102;28;1141;-61
2023/10/22 00:31:58;;;;;;;3.37;0.80;;;;;;;;;;696473;28;1577;-63
2023/10/22 00:32:18;;;;;;;4.13;0.90;;;;;;;;;;699543;28;843;-63
2023/10/22 00:32:39;;;;;;;3.30;0.93;;;;;;;;;;697830;28;1198;-62
2023/10/22 00:32:59;;;;;;;2.35;0.80;;;;;;;;;;696614;28;2225;-63
2023/10/22 00:33:19;;;;;;;3.03;0.80;;;;;;;;;;695213;28;907;-63
2023/10/22 00:33:40;;;;;;;4.60;0.90;;;;;;;;;;694925;28;1353;-61
2023/10/22 00:34:00;;;;;;;5.37;1.00;;;;;;;;;;696170;28;4359;-62
2023/10/22 00:34:21;;;;;;;5.18;1.13;;;;;;;;;;695543;28;865;-62
2023/10/22 00:34:43;;;;;;;3.33;1.00;;;;;;;;;;698147;28;1479;-61
2023/10/22 00:35:04;;;;;;;5.00;1.00;;;;;;;;;;700242;28;2481;-66
2023/10/22 00:35:24;;;;;;;3.85;1.00;;;;;;;;;;700060;28;988;-64
2023/10/22 00:35:55;;;;;;;2.50;1.00;;;;;;;;;;700058;28;935;-63
2023/10/22 00:36:16;;;;;;;3.33;0.88;;;;;;;;;;700709;28;1196;-64
2023/10/22 00:36:36;;;;;;;2.90;1.03;;;;;;;;;;700601;28;836;-63
2023/10/22 00:36:56;;;;;;;3.73;1.03;;;;;;;;;;694903;28;4441;-63
2023/10/22 00:37:17;;;;;;;4.37;1.00;;;;;;;;;;696545;28;1644;-63
2023/10/22 00:37:37;;;;;;;3.47;1.00;;;;;;;;;;694932;28;884;-63
2023/10/22 00:37:57;;;;;;;3.47;1.10;;;;;;;;;;689133;28;1834;-61
2023/10/22 00:38:17;;;;;;;2.92;1.10;;;;;;;;;;690988;28;2686;-61
2023/10/22 00:38:38;;;;;;;4.10;0.93;;;;;;;;;;694460;28;780;-63
2023/10/22 00:38:58;;;;;;;5.37;0.90;;;;;;;;;;695894;28;5761;-63
2023/10/22 00:39:18;;;;;;;5.00;0.90;;;;;;;;;;700743;28;816;-63
2023/10/22 00:39:39;;;;;;;3.50;0.80;;;;;;;;;;699799;28;1199;-64
2023/10/22 00:39:59;;;;;;;3.03;0.80;;;;;;;;;;697983;28;4763;-64
2023/10/22 00:40:19;;;;;;;3.47;0.90;;;;;;;;;;700955;28;961;-63
2023/10/22 00:40:40;;;;;;;2.50;1.00;;;;;;;;;;700246;28;1490;-61
2023/10/22 00:41:00;;;;;;;2.60;1.10;;;;;;;;;;699183;28;1549;-64
2023/10/22 00:41:20;;;;;;;2.17;0.87;;;;;;;;;;695295;28;1384;-61
2023/10/22 00:41:41;;;;;;;2.87;0.90;;;;;;;;;;696793;28;864;-62
2023/10/22 00:42:01;;;;;;;3.35;0.77;;;;;;;;;;696745;28;2078;-63
2023/10/22 00:42:22;;;;;;;3.57;0.80;;;;;;;;;;699230;28;1286;-62
2023/10/22 00:42:43;;;;;;;2.65;0.75;;;;;;;;;;695917;28;4624;-63
2023/10/22 00:43:04;;;;;;;4.65;0.93;;;;;;;;;;695397;28;1434;-63
2023/10/22 00:43:24;;;;;;;3.70;0.80;;;;;;;;;;700926;28;895;-64
2023/10/22 00:43:44;;;;;;;3.00;0.77;;;;;;;;;;699889;28;1045;-65
2023/10/22 00:44:05;;;;;;;2.20;0.80;;;;;;;;;;697805;28;1545;-62
2023/10/22 00:44:25;;;;;;;2.80;0.90;;;;;;;;;;696946;28;939;-62
2023/10/22 00:44:45;;;;;;;2.97;0.80;;;;;;;;;;700001;28;1042;-64
2023/10/22 00:45:07;;;;;;;2.60;0.80;;;;;;;;;;698927;28;1873;-64
2023/10/22 00:45:28;;;;;;;2.70;0.90;;;;;;;;;;699891;28;945;-64
2023/10/22 00:45:48;;;;;;;3.33;0.82;;;;;;;;;;699639;28;4231;-59
2023/10/22 00:46:15;;;;;;;4.00;0.82;;;;;;;;;;697224;28;1769;-62
2023/10/22 00:46:36;;;;;;;2.72;0.80;;;;;;;;;;700152;28;908;-60
2023/10/22 00:46:56;;;;;;;2.38;0.70;;;;;;;;;;698306;28;1862;-60
2023/10/22 00:47:16;;;;;;;2.63;0.90;;;;;;;;;;697563;28;1373;-61
2023/10/22 00:47:37;;;;;;;2.53;0.80;;;;;;;;;;699042;28;852;-63
2023/10/22 00:47:57;;;;;;;2.87;0.80;;;;;;;;;;699691;28;1932;-64
2023/10/22 00:48:18;;;;;;;4.43;1.00;;;;;;;;;;703247;28;1030;-61
2023/10/22 00:48:39;;;;;;;3.58;0.90;;;;;;;;;;703805;28;871;-65
2023/10/22 00:48:59;;;;;;;2.80;0.80;;;;;;;;;;696800;28;4292;-63
2023/10/22 00:49:20;;;;;;;2.93;0.80;;;;;;;;;;701674;28;895;-64
2023/10/22 00:49:41;;;;;;;1.95;0.63;;;;;;;;;;701361;28;1276;-63
2023/10/22 00:50:02;;;;;;;2.58;0.70;;;;;;;;;;697965;28;1845;-64
2023/10/22 00:50:22;;;;;;;2.72;0.70;;;;;;;;;;698419;28;1902;-64
2023/10/22 00:50:43;;;;;;;2.63;0.70;;;;;;;;;;698355;28;1281;-63
2023/10/22 00:51:03;;;;;;;3.30;0.80;;;;;;;;;;698866;28;2292;-64
2023/10/22 00:51:25;;;;;;;2.58;0.85;;;;;;;;;;695587;28;848;-63
2023/10/22 00:51:46;;;;;;;2.95;0.80;;;;;;;;;;694435;28;4328;-63
2023/10/22 00:52:07;;;;;;;5.20;0.80;;;;;;;;;;695190;28;1237;-61
2023/10/22 00:52:29;;;;;;;3.13;0.90;;;;;;;;;;693060;28;1207;-61
2023/10/22 00:52:49;;;;;;;2.60;0.90;;;;;;;;;;695981;28;900;-63
2023/10/22 00:53:12;;;;;;;2.72;0.90;;;;;;;;;;696139;28;1067;-63
2023/10/22 00:53:32;;;;;;;2.67;0.90;;;;;;;;;;698295;28;1011;-64
2023/10/22 00:53:53;;;;;;;3.40;1.00;;;;;;;;;;697865;28;1184;-63
2023/10/22 00:54:14;;;;;;;3.20;0.97;;;;;;;;;;698000;28;1493;-63
2023/10/22 00:54:34;;;;;;;2.47;0.70;;;;;;;;;;699939;28;1224;-66
2023/10/22 00:54:55;;;;;;;2.93;0.77;;;;;;;;;;696135;28;5012;-67
2023/10/22 00:55:16;;;;;;;3.50;0.77;;;;;;;;;;695315;28;1238;-61
2023/10/22 00:55:38;;;;;;;3.10;0.87;;;;;;;;;;695488;28;872;-64
2023/10/22 00:56:00;;;;;;;2.75;0.80;;;;;;;;;;693741;28;1218;-62
2023/10/22 00:56:22;;;;;;;3.07;0.80;;;;;;;;;;696302;28;1031;-61
2023/10/22 00:56:43;;;;;;;3.03;1.00;;;;;;;;;;694530;28;1411;-62
2023/10/22 00:57:04;;;;;;;4.13;0.95;;;;;;;;;;697678;28;1480;-62
2023/10/22 00:57:24;;;;;;;2.53;0.80;;;;;;;;;;699786;28;1632;-63
2023/10/22 00:57:44;;;;;;;2.20;0.90;;;;;;;;;;699196;28;4323;-61
2023/10/22 00:58:05;;;;;;;3.33;0.87;;;;;;;;;;702073;28;1829;-63
2023/10/22 00:58:26;;;;;;;2.72;0.73;;;;;;;;;;702609;28;848;-62
2023/10/22 00:58:47;;;;;;;3.42;0.90;;;;;;;;;;703627;28;891;-62
2023/10/22 00:59:07;;;;;;;2.97;1.00;;;;;;;;;;702724;28;984;-61
2023/10/22 00:59:28;;;;;;;3.03;0.90;;;;;;;;;;705516;28;892;-62
2023/10/22 00:59:51;;;;;;;3.37;0.80;;;;;;;;;;705522;28;1372;-63
2023/10/22 01:00:13;;;;;;;3.42;0.77;;;;;;;;;;693945;28;1930;-63
2023/10/22 01:00:34;;;;;;;2.70;0.82;;;;;;;;;;700777;28;1135;-63
2023/10/22 01:00:55;;;;;;;3.15;0.80;;;;;;;;;;702531;28;4208;-62
2023/10/22 01:01:18;;;;;;;4.22;0.80;;;;;;;;;;706165;28;950;-63
2023/10/22 01:01:38;;;;;;;4.00;0.73;;;;;;;;;;705350;28;794;-62
2023/10/22 01:01:58;;;;;;;3.37;0.90;;;;;;;;;;702910;28;1256;-63
2023/10/22 01:02:22;;;;;;;3.80;0.90;;;;;;;;;;704229;28;815;-62
2023/10/22 01:02:43;;;;;;;3.92;1.00;;;;;;;;;;704632;28;855;-64
2023/10/22 01:03:04;;;;;;;3.80;1.00;;;;;;;;;;703691;28;2336;-62
2023/10/22 01:03:24;;;;;;;4.18;0.90;;;;;;;;;;704159;28;1398;-61
2023/10/22 01:03:44;;;;;;;2.72;0.80;;;;;;;;;;703092;28;4468;-63
2023/10/22 01:04:05;;;;;;;3.20;1.00;;;;;;;;;;701929;28;1677;-63
2023/10/22 01:04:25;;;;;;;2.72;0.85;;;;;;;;;;701287;28;852;-62
2023/10/22 01:04:46;;;;;;;3.93;1.00;;;;;;;;;;700585;28;1438;-62
2023/10/22 01:05:07;;;;;;;2.97;1.00;;;;;;;;;;699441;28;2346;-61
2023/10/22 01:05:27;;;;;;;2.83;0.80;;;;;;;;;;701049;28;1213;-61
2023/10/22 01:05:48;;;;;;;3.30;0.85;;;;;;;;;;698637;28;1593;-61
2023/10/22 01:06:08;;;;;;;2.80;0.80;;;;;;;;;;699582;28;1014;-62
2023/10/22 01:06:30;;;;;;;2.43;0.67;;;;;;;;;;702930;28;1282;-63
2023/10/22 01:06:50;;;;;;;4.03;0.80;;;;;;;;;;698501;28;4332;-62
2023/10/22 01:07:10;;;;;;;4.47;0.90;;;;;;;;;;695768;28;2385;-63
2023/10/22 01:07:31;;;;;;;3.90;0.80;;;;;;;;;;697858;28;844;-62
2023/10/22 01:07:52;;;;;;;2.97;0.80;;;;;;;;;;700342;28;999;-62
2023/10/22 01:08:12;;;;;;;4.28;1.00;;;;;;;;;;695698;28;2171;-63
2023/10/22 01:08:33;;;;;;;4.18;0.93;;;;;;;;;;697028;28;864;-63
2023/10/22 01:08:55;;;;;;;2.87;0.90;;;;;;;;;;700226;28;1041;-63
2023/10/22 01:09:16;;;;;;;3.70;1.20;;;;;;;;;;699841;28;931;-62
2023/10/22 01:09:36;;;;;;;3.78;1.08;;;;;;;;;;699262;28;899;-62
2023/10/22 01:09:56;;;;;;;2.60;0.80;;;;;;;;;;695058;28;4232;-62
2023/10/22 01:10:17;;;;;;;2.10;0.73;;;;;;;;;;699492;28;1905;-62
2023/10/22 01:10:37;;;;;;;2.77;0.80;;;;;;;;;;700550;28;1409;-64
2023/10/22 01:11:06;;;;;;;2.47;0.80;;;;;;;;;;697483;28;1782;-63
2023/10/22 01:11:28;;;;;;;2.50;0.80;;;;;;;;;;700839;28;1216;-63
2023/10/22 01:12:04;;;;;;;2.88;0.90;;;;;;;;;;700368;28;1209;-63
2023/10/22 01:12:32;;;;;;;3.85;0.80;;;;;;;;;;700765;28;1332;-63
2023/10/22 01:12:52;;;;;;;4.20;0.70;;;;;;;;;;695585;28;4258;-64
2023/10/22 01:13:14;;;;;;;2.87;0.70;;;;;;;;;;696100;28;1294;-63
2023/10/22 01:13:34;;;;;;;2.70;0.80;;;;;;;;;;698326;28;950;-64
2023/10/22 01:13:54;;;;;;;3.58;0.88;;;;;;;;;;699338;28;1053;-62
2023/10/22 01:14:15;;;;;;;4.50;0.90;;;;;;;;;;698153;28;1937;-62
2023/10/22 01:14:35;;;;;;;4.00;0.90;;;;;;;;;;695977;28;836;-62
2023/10/22 01:14:55;;;;;;;3.20;0.90;;;;;;;;;;699193;28;1520;-63
2023/10/22 01:15:16;;;;;;;3.07;0.97;;;;;;;;;;698708;28;1162;-62
2023/10/22 01:15:37;;;;;;;2.63;0.90;;;;;;;;;;702147;28;1089;-62
2023/10/22 01:15:58;;;;;;;2.65;0.80;;;;;;;;;;697182;28;4396;-62
2023/10/22 01:16:18;;;;;;;2.97;0.90;;;;;;;;;;700645;28;927;-61
2023/10/22 01:16:38;;;;;;;4.77;1.10;;;;;;;;;;700013;28;1024;-67
2023/10/22 01:16:59;;;;;;;4.88;0.98;;;;;;;;;;694779;28;1723;-61
2023/10/22 01:17:19;;;;;;;5.00;1.10;;;;;;;;;;698140;28;1267;-62
2023/10/22 01:17:39;;;;;;;5.70;1.20;;;;;;;;;;698199;28;911;-62
2023/10/22 01:18:00;;;;;;;4.20;0.80;;;;;;;;;;698392;28;2352;-62
2023/10/22 01:18:20;;;;;;;3.53;0.93;;;;;;;;;;699642;28;1190;-62
2023/10/22 01:18:41;;;;;;;3.63;0.90;;;;;;;;;;700096;28;901;-61
2023/10/22 01:19:01;;;;;;;2.97;0.77;;;;;;;;;;702899;28;4323;-62
2023/10/22 01:19:23;;;;;;;2.72;0.90;;;;;;;;;;705226;28;932;-62
2023/10/22 01:19:43;;;;;;;2.60;0.90;;;;;;;;;;702828;28;1164;-61
2023/10/22 01:20:04;;;;;;;3.87;0.80;;;;;;;;;;701072;28;2217;-63
2023/10/22 01:20:25;;;;;;;3.88;1.00;;;;;;;;;;701285;28;1238;-61
2023/10/22 01:20:46;;;;;;;2.30;0.83;;;;;;;;;;700680;28;1057;-62
2023/10/22 01:21:06;;;;;;;3.42;1.00;;;;;;;;;;698222;28;1777;-62
2023/10/22 01:21:29;;;;;;;4.40;0.85;;;;;;;;;;698412;28;1112;-61
2023/10/22 01:21:49;;;;;;;3.13;0.80;;;;;;;;;;700463;28;4235;-60
2023/10/22 01:22:09;;;;;;;4.60;1.00;;;;;;;;;;698933;28;1797;-63
2023/10/22 01:22:30;;;;;;;3.20;0.80;;;;;;;;;;699598;28;1499;-64
2023/10/22 01:22:50;;;;;;;2.17;0.63;;;;;;;;;;696551;28;829;-62
2023/10/22 01:23:10;;;;;;;2.95;0.80;;;;;;;;;;694905;28;1479;-62
2023/10/22 01:23:39;;;;;;;3.50;0.87;;;;;;;;;;698481;28;991;-61
2023/10/22 01:24:00;;;;;;;2.30;0.77;;;;;;;;;;696078;28;2200;-62
2023/10/22 01:24:21;;;;;;;2.80;0.60;;;;;;;;;;697116;28;991;-60
2023/10/22 01:24:41;;;;;;;4.03;0.80;;;;;;;;;;700040;28;1192;-61
2023/10/22 01:25:02;;;;;;;3.50;0.80;;;;;;;;;;698471;28;4187;-64
2023/10/22 01:25:22;;;;;;;2.05;0.70;;;;;;;;;;700944;28;831;-59
2023/10/22 01:25:42;;;;;;;2.67;0.90;;;;;;;;;;701185;28;852;-64
2023/10/22 01:26:04;;;;;;;2.78;0.82;;;;;;;;;;700631;28;1829;-63
2023/10/22 01:26:24;;;;;;;3.53;1.08;;;;;;;;;;703268;28;1042;-62
2023/10/22 01:26:45;;;;;;;2.38;0.85;;;;;;;;;;701337;28;991;-63
2023/10/22 01:27:06;;;;;;;2.13;0.80;;;;;;;;;;699366;28;1897;-63
2023/10/22 01:27:27;;;;;;;3.77;1.00;;;;;;;;;;700362;28;860;-62
2023/10/22 01:27:47;;;;;;;3.10;0.70;;;;;;;;;;702833;28;4557;-61
2023/10/22 01:28:08;;;;;;;5.20;1.27;;;;;;;;;;701674;28;1635;-61
2023/10/22 01:28:29;;;;;;;4.82;1.20;;;;;;;;;;703769;28;1368;-62
2023/10/22 01:28:49;;;;;;;4.50;0.90;;;;;;;;;;701514;28;1337;-62
2023/10/22 01:29:10;;;;;;;2.85;0.70;;;;;;;;;;700564;28;1035;-63
2023/10/22 01:29:30;;;;;;;2.53;0.70;;;;;;;;;;702831;28;1353;-62
2023/10/22 01:29:50;;;;;;;4.82;0.90;;;;;;;;;;700643;28;1296;-63
2023/10/22 01:30:11;;;;;;;4.37;1.13;;;;;;;;;;696091;28;1942;-62
2023/10/22 01:30:31;;;;;;;3.23;0.97;;;;;;;;;;698162;28;880;-61
2023/10/22 01:30:51;;;;;;;4.72;1.02;;;;;;;;;;698017;28;4342;-63
2023/10/22 01:31:16;;;;;;;4.20;1.13;;;;;;;;;;694165;28;1735;-62
2023/10/22 01:31:37;;;;;;;3.22;0.90;;;;;;;;;;693639;28;2060;-63
2023/10/22 01:31:57;;;;;;;3.97;1.00;;;;;;;;;;690602;28;1933;-62
2023/10/22 01:32:18;;;;;;;3.33;0.83;;;;;;;;;;696877;28;839;-64
2023/10/22 01:32:38;;;;;;;3.00;0.88;;;;;;;;;;694384;28;1201;-63
2023/10/22 01:32:59;;;;;;;1.83;0.80;;;;;;;;;;691323;28;1543;-64
2023/10/22 01:33:19;;;;;;;1.93;0.70;;;;;;;;;;695820;28;789;-64
2023/10/22 01:33:39;;;;;;;2.27;0.80;;;;;;;;;;696210;28;960;-62
2023/10/22 01:34:00;;;;;;;2.60;0.82;;;;;;;;;;694617;28;4433;-63
2023/10/22 01:34:22;;;;;;;3.35;0.90;;;;;;;;;;695398;28;2460;-64
2023/10/22 01:34:42;;;;;;;3.27;0.80;;;;;;;;;;698137;28;1421;-63
2023/10/22 01:35:02;;;;;;;2.73;0.70;;;;;;;;;;694274;28;1459;-64
2023/10/22 01:35:23;;;;;;;2.47;0.80;;;;;;;;;;695699;28;1238;-63
2023/10/22 01:35:43;;;;;;;2.60;0.87;;;;;;;;;;693078;28;1494;-63
2023/10/22 01:36:05;;;;;;;3.67;0.85;;;;;;;;;;690247;28;1485;-63
2023/10/22 01:36:25;;;;;;;3.70;0.90;;;;;;;;;;693422;28;888;-62
2023/10/22 01:36:45;;;;;;;3.97;1.00;;;;;;;;;;695375;28;4372;-62
2023/10/22 01:37:06;;;;;;;2.37;0.73;;;;;;;;;;695918;28;2272;-64
2023/10/22 01:37:26;;;;;;;4.83;0.80;;;;;;;;;;699527;28;924;-69
2023/10/22 01:37:47;;;;;;;4.18;0.73;;;;;;;;;;700745;28;1332;-59
2023/10/22 01:38:08;;;;;;;3.93;0.90;;;;;;;;;;701839;28;1055;-59
2023/10/22 01:38:28;;;;;;;4.13;0.88;;;;;;;;;;702227;28;824;-62
2023/10/22 01:38:49;;;;;;;3.13;0.80;;;;;;;;;;702731;28;5875;-63
2023/10/22 01:39:13;;;;;;;2.13;0.65;;;;;;;;;;700884;28;1521;-66
2023/10/22 01:39:33;;;;;;;2.78;0.80;;;;;;;;;;699604;28;2025;-63
2023/10/22 01:39:54;;;;;;;3.33;0.80;;;;;;;;;;696336;28;4509;-64
2023/10/22 01:40:14;;;;;;;3.42;0.70;;;;;;;;;;696897;28;1570;-64
2023/10/22 01:40:35;;;;;;;2.03;0.70;;;;;;;;;;696850;28;1401;-64
2023/10/22 01:40:56;;;;;;;3.00;0.80;;;;;;;;;;698303;28;813;-61
2023/10/22 01:41:17;;;;;;;2.60;0.80;;;;;;;;;;696988;28;2182;-63
2023/10/22 01:41:37;;;;;;;2.90;0.75;;;;;;;;;;696974;28;864;-63
2023/10/22 01:41:57;;;;;;;3.27;0.70;;;;;;;;;;695875;28;2253;-62
2023/10/22 01:42:17;;;;;;;2.53;0.70;;;;;;;;;;698269;28;1492;-63
2023/10/22 01:42:38;;;;;;;2.83;0.80;;;;;;;;;;703687;28;912;-62
2023/10/22 01:42:58;;;;;;;3.17;0.97;;;;;;;;;;697662;28;4214;-63
2023/10/22 01:43:18;;;;;;;2.40;0.90;;;;;;;;;;698325;28;955;-62
2023/10/22 01:43:39;;;;;;;2.88;0.80;;;;;;;;;;698638;28;916;-62
2023/10/22 01:43:59;;;;;;;2.60;0.77;;;;;;;;;;699005;28;1565;-63
2023/10/22 01:44:19;;;;;;;3.80;0.73;;;;;;;;;;697875;28;1128;-62
2023/10/22 01:44:39;;;;;;;2.97;0.70;;;;;;;;;;695783;28;1227;-63
2023/10/22 01:45:00;;;;;;;1.63;0.63;;;;;;;;;;696073;28;1881;-64
2023/10/22 01:45:20;;;;;;;3.13;0.90;;;;;;;;;;696733;28;1237;-64
2023/10/22 01:45:41;;;;;;;2.67;0.90;;;;;;;;;;696857;28;957;-63
2023/10/22 01:46:01;;;;;;;2.53;0.90;;;;;;;;;;697704;28;4275;-63
2023/10/22 01:46:21;;;;;;;2.75;0.80;;;;;;;;;;700273;28;1424;-64
2023/10/22 01:46:41;;;;;;;2.73;0.80;;;;;;;;;;700942;28;841;-63
2023/10/22 01:47:02;;;;;;;2.63;1.00;;;;;;;;;;698802;28;1608;-64
2023/10/22 01:47:22;;;;;;;3.10;1.05;;;;;;;;;;701022;28;1153;-62
2023/10/22 01:47:43;;;;;;;2.93;0.77;;;;;;;;;;701448;28;785;-63
2023/10/22 01:48:03;;;;;;;4.13;0.90;;;;;;;;;;696754;28;1774;-62
2023/10/22 01:48:23;;;;;;;2.70;0.67;;;;;;;;;;700949;28;900;-59
2023/10/22 01:48:44;;;;;;;2.22;0.80;;;;;;;;;;696866;28;4345;-62
2023/10/22 01:49:06;;;;;;;1.73;0.70;;;;;;;;;;698737;28;1089;-62
2023/10/22 01:49:26;;;;;;;2.50;0.70;;;;;;;;;;703228;28;959;-61
2023/10/22 01:49:47;;;;;;;3.20;0.80;;;;;;;;;;703727;28;1156;-63
2023/10/22 01:50:07;;;;;;;4.18;0.70;;;;;;;;;;703595;28;1910;-64
2023/10/22 01:50:27;;;;;;;3.63;0.90;;;;;;;;;;706101;28;776;-64
2023/10/22 01:50:48;;;;;;;3.38;0.90;;;;;;;;;;702032;28;1433;-64
2023/10/22 01:51:08;;;;;;;3.33;0.90;;;;;;;;;;701365;28;1924;-61
2023/10/22 01:51:28;;;;;;;2.30;0.80;;;;;;;;;;702013;28;1047;-62
2023/10/22 01:51:49;;;;;;;2.15;0.75;;;;;;;;;;696803;28;4242;-61
2023/10/22 01:52:10;;;;;;;3.20;0.80;;;;;;;;;;695941;28;2194;-61
2023/10/22 01:52:31;;;;;;;4.68;0.90;;;;;;;;;;694888;28;1341;-61
2023/10/22 01:52:51;;;;;;;3.60;0.60;;;;;;;;;;695382;28;948;-65
2023/10/22 01:53:12;;;;;;;3.70;0.80;;;;;;;;;;693359;28;1334;-61
2023/10/22 01:53:33;;;;;;;5.00;0.90;;;;;;;;;;694195;28;1384;-66
2023/10/22 01:53:53;;;;;;;3.58;0.82;;;;;;;;;;696843;28;922;-62
2023/10/22 01:54:13;;;;;;;2.17;0.80;;;;;;;;;;692466;28;1058;-64
2023/10/22 01:54:34;;;;;;;3.63;1.10;;;;;;;;;;693140;28;934;-63
2023/10/22 01:54:55;;;;;;;5.38;0.93;;;;;;;;;;693278;28;4535;-63
2023/10/22 01:55:16;;;;;;;6.07;1.00;;;;;;;;;;695607;28;1969;-62
2023/10/22 01:55:36;;;;;;;2.70;0.90;;;;;;;;;;699896;28;805;-63
2023/10/22 01:55:56;;;;;;;2.70;0.80;;;;;;;;;;699966;28;1180;-62
2023/10/22 01:56:17;;;;;;;2.97;0.80;;;;;;;;;;700356;28;1877;-67
2023/10/22 01:56:37;;;;;;;2.10;0.70;;;;;;;;;;695917;28;1258;-62
2023/10/22 01:56:57;;;;;;;2.57;0.90;;;;;;;;;;696229;28;1206;-63
2023/10/22 01:57:17;;;;;;;2.07;1.00;;;;;;;;;;695983;28;1325;-63
2023/10/22 01:57:38;;;;;;;2.63;0.70;;;;;;;;;;694911;28;1165;-63
2023/10/22 01:57:58;;;;;;;2.13;0.70;;;;;;;;;;697574;28;4376;-62
2023/10/22 01:58:18;;;;;;;2.63;0.73;;;;;;;;;;697141;28;1189;-61
2023/10/22 01:58:39;;;;;;;3.13;0.80;;;;;;;;;;693531;28;1206;-63
2023/10/22 01:58:59;;;;;;;2.53;0.80;;;;;;;;;;693631;28;1912;-63
2023/10/22 01:59:19;;;;;;;2.97;0.70;;;;;;;;;;695056;28;801;-61
2023/10/22 01:59:41;;;;;;;3.80;0.90;;;;;;;;;;692817;28;1301;-62
2023/10/22 02:00:03;;;;;;;3.00;0.80;;;;;;;;;;694309;28;1760;-64
2023/10/22 02:00:24;;;;;;;4.60;0.90;;;;;;;;;;697747;28;1456;-62
2023/10/22 02:00:44;;;;;;;3.53;1.00;;;;;;;;;;701065;28;4490;-62
2023/10/22 02:01:04;;;;;;;3.00;0.83;;;;;;;;;;699585;28;1948;-62
2023/10/22 02:01:26;;;;;;;2.03;0.70;;;;;;;;;;700745;28;1197;-62
2023/10/22 02:01:46;;;;;;;1.95;0.70;;;;;;;;;;703196;28;911;-63
2023/10/22 02:02:07;;;;;;;3.60;0.60;;;;;;;;;;697604;28;2409;-61
2023/10/22 02:02:27;;;;;;;3.30;0.90;;;;;;;;;;701321;28;851;-62
2023/10/22 02:02:48;;;;;;;2.50;0.80;;;;;;;;;;701625;28;867;-63
2023/10/22 02:03:09;;;;;;;3.78;0.85;;;;;;;;;;700338;28;2049;-62
2023/10/22 02:03:29;;;;;;;3.83;0.90;;;;;;;;;;701724;28;1346;-63
2023/10/22 02:03:49;;;;;;;2.10;0.77;;;;;;;;;;695561;28;4371;-62
2023/10/22 02:04:10;;;;;;;1.80;0.70;;;;;;;;;;694602;28;2170;-61
2023/10/22 02:04:31;;;;;;;2.42;0.77;;;;;;;;;;695916;28;1263;-63
2023/10/22 02:04:52;;;;;;;2.88;0.90;;;;;;;;;;698586;28;1014;-65
2023/10/22 02:05:12;;;;;;;2.72;0.80;;;;;;;;;;696993;28;2155;-62
2023/10/22 02:05:36;;;;;;;2.70;0.80;;;;;;;;;;695718;28;1459;-62
2023/10/22 02:05:56;;;;;;;2.47;0.80;;;;;;;;;;695420;28;888;-64
2023/10/22 02:06:16;;;;;;;1.60;0.70;;;;;;;;;;696025;28;1489;-63
2023/10/22 02:06:37;;;;;;;3.00;0.90;;;;;;;;;;697800;28;1361;-62
2023/10/22 02:06:57;;;;;;;3.97;0.80;;;;;;;;;;693065;28;4493;-63
2023/10/22 02:07:19;;;;;;;4.68;0.90;;;;;;;;;;692390;28;1534;-64
2023/10/22 02:07:46;;;;;;;4.05;1.10;;;;;;;;;;696736;28;815;-63
2023/10/22 02:08:19;;;;;;;1.45;0.63;;;;;;;;;;691878;28;1801;-66
2023/10/22 02:08:49;;;;;;;2.78;0.70;;;;;;;;;;694340;28;1420;-63
2023/10/22 02:09:13;;;;;;;2.35;0.70;;;;;;;;;;696539;28;1442;-63
2023/10/22 02:09:34;;;;;;;4.72;1.00;;;;;;;;;;698573;28;1072;-63
2023/10/22 02:09:55;;;;;;;4.00;0.97;;;;;;;;;;696904;28;4356;-62